Terminal Aerodrome Forecast
Issued by NWS

Home | Current Version | Previous Version | Text Only | Print | Product List | Glossary On
Versions: 1 2 3 4 5 6 7 8 9 10 11 12 13 14 15 16 17
000
FTUS43 KILX 301755
TAFDEC
TAF
KDEC 301755Z 3018/3118 VRB03KT 6SM -RA BR VCTS SCT008CB BKN015
     FM302200 35010KT 4SM -RA BR OVC015
     FM310000 02014G24KT 4SM -RA BR OVC008
     FM310300 02014G24KT P6SM VCSH OVC008
     FM310800 02012KT P6SM OVC015=

USA.gov is the U.S. government's official web portal to all federal, state and local government web resources and services.